Okara Weather



Okara's Current Weather

Temprature 39.31o scattered clouds

scattered clouds

Rain: 0 %

Min Temprature39.31o
Max Temprature39.31o
Humidity15
Wind Speed0.67 m/h
Sun Rise05:16:20
Sun Set18:49:05
Current Time: 08-May-2021 14:20:18
Lat/Lon: 30.8081, 73.4458




Okara's Geo Location



Okara's Weather Forecast

Time Overall Temp Min Temp Max Temp Humidity Wind Speed Rain
08-May-2021 (Sat)
17:00:00 scattered clouds 38.900 38.070 38.900 16 2.8 m/h 0 %
20:00:00 moderate rain 29.160 24.080 29.160 45 4.87 m/h 389 %
23:00:00 light rain 30.360 30.360 30.360 28 0.41 m/h 18 %
09-May-2021 (Sun)
02:00:00 overcast clouds 28.530 28.530 28.530 30 1.47 m/h 0 %
05:00:00 broken clouds 26.950 26.950 26.950 33 1.07 m/h 0 %
08:00:00 few clouds 32.440 32.440 32.440 26 3.11 m/h 0 %
11:00:00 scattered clouds 39.020 39.020 39.020 15 4.55 m/h 0 %
14:00:00 scattered clouds 41.290 41.290 41.290 11 2.8 m/h 0 %
17:00:00 scattered clouds 38.900 38.900 38.900 13 6.01 m/h 0 %
20:00:00 scattered clouds 32.930 32.930 32.930 21 2.15 m/h 0 %
23:00:00 broken clouds 30.770 30.770 30.770 27 5.8 m/h 0 %
10-May-2021 (Mon)
02:00:00 scattered clouds 28.330 28.330 28.330 31 2.61 m/h 0 %
05:00:00 few clouds 26.760 26.760 26.760 36 3.26 m/h 0 %
08:00:00 broken clouds 32.940 32.940 32.940 23 4.67 m/h 0 %
11:00:00 scattered clouds 39.130 39.130 39.130 15 1.98 m/h 0 %
14:00:00 broken clouds 42.260 42.260 42.260 11 2.5 m/h 0 %
17:00:00 light rain 27.950 27.950 27.950 37 12.85 m/h 81 %
20:00:00 overcast clouds 32.810 32.810 32.810 22 3.74 m/h 0 %
23:00:00 light rain 30.110 30.110 30.110 31 5.16 m/h 28 %
11-May-2021 (Tue)
02:00:00 overcast clouds 27.770 27.770 27.770 37 2.65 m/h 0 %
05:00:00 overcast clouds 27.010 27.010 27.010 44 2.4 m/h 0 %
08:00:00 clear sky 32.650 32.650 32.650 28 0.71 m/h 0 %
11:00:00 clear sky 38.070 38.070 38.070 18 2.95 m/h 0 %
14:00:00 clear sky 41.350 41.350 41.350 14 4.15 m/h 0 %
17:00:00 clear sky 41.160 41.160 41.160 13 4.93 m/h 0 %
20:00:00 light rain 29.830 29.830 29.830 32 8.79 m/h 105 %
23:00:00 light rain 29.100 29.100 29.100 36 2.14 m/h 39 %
12-May-2021 (Wed)
02:00:00 light rain 28.270 28.270 28.270 38 3.87 m/h 17 %
05:00:00 overcast clouds 27.770 27.770 27.770 39 3.63 m/h 0 %
08:00:00 overcast clouds 31.820 31.820 31.820 28 2.93 m/h 0 %
11:00:00 overcast clouds 36.130 36.130 36.130 20 3.45 m/h 0 %
14:00:00 overcast clouds 36.210 36.210 36.210 20 3.78 m/h 0 %
17:00:00 light rain 28.130 28.130 28.130 42 4.74 m/h 57 %
20:00:00 broken clouds 29.010 29.010 29.010 37 4.2 m/h 0 %
23:00:00 light rain 26.230 26.230 26.230 48 1.23 m/h 27 %
13-May-2021 (Thu)
02:00:00 overcast clouds 25.270 25.270 25.270 51 1.99 m/h 0 %
05:00:00 overcast clouds 24.590 24.590 24.590 58 1.18 m/h 0 %
08:00:00 clear sky 28.700 28.700 28.700 48 2.81 m/h 0 %
11:00:00 clear sky 33.520 33.520 33.520 32 2.4 m/h 0 %
14:00:00 few clouds 36.580 36.580 36.580 24 2.18 m/h 0 %

Famous Cities (60)